Time;durP1;ratioP1;P1;durP2;ratioP2;P2;SDS_P1;SDS_P2;PMS_P1;PMS_P2;Temp;Humidity;BMP_temperature;BMP_pressure;BME280_temperature;BME280_humidity;BME280_pressure;Samples;Min_cycle;Max_cycle;Signal;HPM_P1;HPM_P2
2023/12/25 00:01:10;;;;;;;1.92;0.80;;;;;;;;;;5087748;28;20462;-82
2023/12/25 00:03:37;;;;;;;1.05;0.60;;;;;;;;;;5087070;28;20131;-84
2023/12/25 00:06:15;;;;;;;0.50;0.40;;;;;;;;;;5086519;28;20044;-82
2023/12/25 00:08:42;;;;;;;1.38;0.40;;;;;;;;;;5054502;28;20128;-82
2023/12/25 00:11:10;;;;;;;1.52;0.68;;;;;;;;;;5092801;28;20065;-83
2023/12/25 00:13:37;;;;;;;2.88;0.73;;;;;;;;;;5099766;28;20090;-85
2023/12/25 00:16:04;;;;;;;0.82;0.60;;;;;;;;;;5110633;28;20078;-84
2023/12/25 00:18:30;;;;;;;0.85;0.45;;;;;;;;;;5070625;28;20041;-81
2023/12/25 00:20:57;;;;;;;2.85;0.50;;;;;;;;;;5072033;28;20518;-81
2023/12/25 00:23:24;;;;;;;1.30;0.52;;;;;;;;;;5087260;28;20056;-82
2023/12/25 00:25:50;;;;;;;0.40;0.35;;;;;;;;;;5054200;28;20142;-82
2023/12/25 00:28:17;;;;;;;3.20;0.73;;;;;;;;;;5070867;28;20048;-82
2023/12/25 00:30:44;;;;;;;1.73;0.57;;;;;;;;;;5087408;28;20048;-82
2023/12/25 00:33:10;;;;;;;2.97;0.60;;;;;;;;;;5087396;28;20049;-82
2023/12/25 00:35:37;;;;;;;1.73;0.57;;;;;;;;;;5070807;28;20062;-81
2023/12/25 00:38:04;;;;;;;2.20;0.70;;;;;;;;;;5070343;28;20056;-82
2023/12/25 00:40:30;;;;;;;1.38;0.73;;;;;;;;;;5087313;28;20080;-81
2023/12/25 00:42:57;;;;;;;1.23;0.60;;;;;;;;;;5066950;28;20088;-81
2023/12/25 00:45:23;;;;;;;3.67;0.90;;;;;;;;;;5051291;28;20049;-81
2023/12/25 00:47:50;;;;;;;1.90;0.50;;;;;;;;;;5071845;28;20159;-82
2023/12/25 00:50:17;;;;;;;1.15;0.45;;;;;;;;;;5071547;28;20427;-81
2023/12/25 00:52:44;;;;;;;1.02;0.40;;;;;;;;;;5088258;28;20068;-81
2023/12/25 00:55:11;;;;;;;2.13;0.60;;;;;;;;;;5071539;28;20468;-82
2023/12/25 00:57:37;;;;;;;2.38;0.93;;;;;;;;;;5088364;28;20138;-82
2023/12/25 01:00:04;;;;;;;2.35;0.60;;;;;;;;;;5071235;28;20143;-83
2023/12/25 01:02:31;;;;;;;2.78;0.98;;;;;;;;;;5070199;28;20048;-82
2023/12/25 01:04:58;;;;;;;0.68;0.52;;;;;;;;;;5087173;28;20044;-82
2023/12/25 01:07:24;;;;;;;1.63;0.93;;;;;;;;;;5070222;28;20044;-82
2023/12/25 01:09:51;;;;;;;1.98;0.90;;;;;;;;;;5087286;28;20471;-82
2023/12/25 01:12:17;;;;;;;1.60;0.57;;;;;;;;;;5071353;28;20136;-82
2023/12/25 01:14:44;;;;;;;1.65;0.50;;;;;;;;;;5056702;28;20060;-82
2023/12/25 01:17:11;;;;;;;1.60;0.75;;;;;;;;;;5090546;28;20494;-82
2023/12/25 01:19:38;;;;;;;3.22;0.60;;;;;;;;;;5091094;28;20056;-81
2023/12/25 01:22:04;;;;;;;1.05;0.65;;;;;;;;;;5092434;28;20075;-84
2023/12/25 01:24:31;;;;;;;1.08;0.55;;;;;;;;;;5091084;28;20076;-82
2023/12/25 01:26:57;;;;;;;1.35;0.57;;;;;;;;;;5090633;28;20087;-82
2023/12/25 01:29:24;;;;;;;1.02;0.50;;;;;;;;;;5090639;28;20402;-82
2023/12/25 01:31:51;;;;;;;1.77;0.75;;;;;;;;;;5073765;28;20053;-81
2023/12/25 01:34:18;;;;;;;0.85;0.50;;;;;;;;;;5073429;28;20510;-82
2023/12/25 01:36:45;;;;;;;1.42;0.73;;;;;;;;;;5090280;28;20067;-83
2023/12/25 01:39:14;;;;;;;0.57;0.43;;;;;;;;;;5056903;28;20065;-82
2023/12/25 01:41:41;;;;;;;0.85;0.63;;;;;;;;;;5074146;28;20049;-82
2023/12/25 01:44:08;;;;;;;2.30;0.57;;;;;;;;;;5073260;28;20059;-82
2023/12/25 01:46:46;;;;;;;0.75;0.63;;;;;;;;;;5073568;28;20048;-82
2023/12/25 01:49:12;;;;;;;2.25;0.35;;;;;;;;;;5056848;28;20129;-82
2023/12/25 01:51:39;;;;;;;0.57;0.40;;;;;;;;;;5072993;28;20409;-80
2023/12/25 01:54:07;;;;;;;1.05;0.60;;;;;;;;;;5073329;28;20129;-80
2023/12/25 01:56:34;;;;;;;1.58;0.50;;;;;;;;;;5072887;28;20418;-80
2023/12/25 01:59:02;;;;;;;0.63;0.50;;;;;;;;;;5073056;28;20521;-80
2023/12/25 02:01:29;;;;;;;0.82;0.40;;;;;;;;;;5056508;28;20055;-82
2023/12/25 02:03:56;;;;;;;0.40;0.32;;;;;;;;;;5075588;28;20075;-80
2023/12/25 02:06:22;;;;;;;2.72;0.50;;;;;;;;;;5075366;28;20501;-80
2023/12/25 02:08:49;;;;;;;0.40;0.40;;;;;;;;;;5072800;28;20106;-82
2023/12/25 02:11:16;;;;;;;2.25;0.80;;;;;;;;;;5072494;28;20495;-80
2023/12/25 02:13:42;;;;;;;0.70;0.30;;;;;;;;;;5072736;28;20403;-80
2023/12/25 02:16:09;;;;;;;0.40;0.40;;;;;;;;;;5089573;28;20049;-80
2023/12/25 02:18:35;;;;;;;1.10;0.40;;;;;;;;;;5071706;28;20481;-80
2023/12/25 02:21:03;;;;;;;0.50;0.30;;;;;;;;;;5077346;28;20068;-83
2023/12/25 02:23:29;;;;;;;1.85;0.50;;;;;;;;;;5096993;28;20047;-82
2023/12/25 02:25:56;;;;;;;1.65;0.60;;;;;;;;;;5058687;28;20045;-80
2023/12/25 02:28:23;;;;;;;1.55;0.40;;;;;;;;;;5055931;28;20048;-80
2023/12/25 02:30:51;;;;;;;2.30;0.70;;;;;;;;;;5074005;28;20052;-80
2023/12/25 02:33:18;;;;;;;0.68;0.40;;;;;;;;;;5064303;28;20056;-80
2023/12/25 02:35:44;;;;;;;1.67;0.50;;;;;;;;;;5090904;28;20052;-81
2023/12/25 02:38:11;;;;;;;1.13;0.50;;;;;;;;;;5073694;28;20106;-80
2023/12/25 02:40:41;;;;;;;0.88;0.40;;;;;;;;;;5057123;28;20056;-81
2023/12/25 02:43:08;;;;;;;1.55;0.50;;;;;;;;;;5090908;28;20052;-82
2023/12/25 02:45:35;;;;;;;2.28;0.90;;;;;;;;;;5073290;28;20048;-81
2023/12/25 02:48:01;;;;;;;1.13;0.68;;;;;;;;;;5056783;28;20048;-80
2023/12/25 02:50:28;;;;;;;0.60;0.50;;;;;;;;;;5073343;28;20053;-81
2023/12/25 02:52:55;;;;;;;1.08;0.50;;;;;;;;;;5073885;28;20052;-80
2023/12/25 02:55:21;;;;;;;0.60;0.47;;;;;;;;;;5056437;28;20563;-81
2023/12/25 02:57:48;;;;;;;0.95;0.40;;;;;;;;;;5089509;28;20056;-81
2023/12/25 03:00:15;;;;;;;2.28;0.70;;;;;;;;;;5073670;28;20056;-80
2023/12/25 03:02:41;;;;;;;0.70;0.55;;;;;;;;;;5073156;28;20048;-80
2023/12/25 03:05:08;;;;;;;0.95;0.40;;;;;;;;;;5056310;28;20521;-81
2023/12/25 03:07:34;;;;;;;1.08;0.65;;;;;;;;;;5072349;28;20568;-81
2023/12/25 03:10:01;;;;;;;2.38;0.50;;;;;;;;;;5073318;28;20044;-80
2023/12/25 03:12:28;;;;;;;0.90;0.45;;;;;;;;;;5056202;28;20101;-80
2023/12/25 03:14:55;;;;;;;0.32;0.32;;;;;;;;;;5073313;28;20392;-80
2023/12/25 03:17:21;;;;;;;0.68;0.60;;;;;;;;;;5089069;28;20067;-80
2023/12/25 03:19:48;;;;;;;1.80;0.52;;;;;;;;;;5072647;28;20510;-80
2023/12/25 03:22:15;;;;;;;0.95;0.50;;;;;;;;;;5072865;28;20052;-81
2023/12/25 03:24:42;;;;;;;1.02;0.55;;;;;;;;;;5056727;28;20391;-80
2023/12/25 03:27:08;;;;;;;0.75;0.50;;;;;;;;;;5072646;28;20060;-81
2023/12/25 03:29:35;;;;;;;1.10;0.77;;;;;;;;;;5071775;28;20122;-81
2023/12/25 03:32:02;;;;;;;1.30;0.70;;;;;;;;;;5055894;28;20102;-81
2023/12/25 03:34:28;;;;;;;2.15;0.50;;;;;;;;;;5055970;28;20044;-81
2023/12/25 03:36:56;;;;;;;0.57;0.50;;;;;;;;;;5089584;28;20131;-80
2023/12/25 03:39:22;;;;;;;0.82;0.50;;;;;;;;;;5089119;28;20072;-81
2023/12/25 03:41:49;;;;;;;0.70;0.43;;;;;;;;;;5072179;28;20057;-81
2023/12/25 03:44:15;;;;;;;1.30;0.57;;;;;;;;;;5089197;28;20048;-80
2023/12/25 03:46:42;;;;;;;1.08;0.55;;;;;;;;;;5088443;28;20045;-80
2023/12/25 03:49:09;;;;;;;0.85;0.60;;;;;;;;;;5088847;28;20052;-82
2023/12/25 03:51:35;;;;;;;0.75;0.50;;;;;;;;;;5056090;28;20426;-81
2023/12/25 03:54:02;;;;;;;0.40;0.40;;;;;;;;;;5089660;28;20053;-81
2023/12/25 03:56:29;;;;;;;0.68;0.30;;;;;;;;;;5072780;28;20421;-81
2023/12/25 03:58:55;;;;;;;3.22;0.47;;;;;;;;;;5073253;28;20059;-80
2023/12/25 04:01:22;;;;;;;0.90;0.47;;;;;;;;;;5072056;28;20102;-80
2023/12/25 04:03:49;;;;;;;3.35;0.68;;;;;;;;;;5056334;28;20052;-81
2023/12/25 04:06:25;;;;;;;0.65;0.52;;;;;;;;;;5071709;28;20052;-84
2023/12/25 04:08:52;;;;;;;0.47;0.38;;;;;;;;;;5088371;28;20059;-80
2023/12/25 04:11:22;;;;;;;1.40;0.50;;;;;;;;;;5080617;28;20426;-81
2023/12/25 04:13:53;;;;;;;0.57;0.38;;;;;;;;;;5072494;28;20403;-81
2023/12/25 04:16:20;;;;;;;1.23;0.60;;;;;;;;;;5069558;28;20419;-81
2023/12/25 04:18:47;;;;;;;0.30;0.30;;;;;;;;;;5072073;28;20129;-80
2023/12/25 04:21:24;;;;;;;1.45;0.47;;;;;;;;;;5088725;28;20161;-80
2023/12/25 04:23:51;;;;;;;0.82;0.60;;;;;;;;;;5060562;28;20041;-84
2023/12/25 04:26:20;;;;;;;0.88;0.50;;;;;;;;;;5077338;28;20074;-80
2023/12/25 04:28:47;;;;;;;1.10;0.65;;;;;;;;;;5083767;28;20475;-80
2023/12/25 04:31:14;;;;;;;0.82;0.40;;;;;;;;;;5067377;28;20121;-80
2023/12/25 04:33:41;;;;;;;1.63;0.63;;;;;;;;;;5071474;28;20048;-80
2023/12/25 04:36:08;;;;;;;1.40;0.40;;;;;;;;;;5088502;28;20152;-80
2023/12/25 04:38:35;;;;;;;2.08;0.57;;;;;;;;;;5087942;28;20510;-80
2023/12/25 04:41:02;;;;;;;0.38;0.30;;;;;;;;;;5055232;28;20487;-82
2023/12/25 04:43:28;;;;;;;0.50;0.30;;;;;;;;;;5071202;28;20570;-80
2023/12/25 04:45:55;;;;;;;2.28;0.40;;;;;;;;;;5087706;28;20106;-81
2023/12/25 04:48:21;;;;;;;0.90;0.47;;;;;;;;;;5055018;28;20071;-82
2023/12/25 04:50:48;;;;;;;1.60;0.50;;;;;;;;;;5092255;28;20456;-80
2023/12/25 04:53:15;;;;;;;0.63;0.60;;;;;;;;;;5075261;28;20052;-80
2023/12/25 04:55:42;;;;;;;1.23;0.30;;;;;;;;;;5084641;28;20052;-81
2023/12/25 04:58:08;;;;;;;0.40;0.40;;;;;;;;;;5058817;28;20564;-80
2023/12/25 05:00:35;;;;;;;0.77;0.70;;;;;;;;;;5058531;28;20052;-81
2023/12/25 05:03:03;;;;;;;0.52;0.35;;;;;;;;;;5075132;28;20575;-80
2023/12/25 05:05:29;;;;;;;1.67;0.40;;;;;;;;;;5058754;28;20120;-81
2023/12/25 05:07:56;;;;;;;0.70;0.40;;;;;;;;;;5091844;28;20052;-81
2023/12/25 05:10:23;;;;;;;1.95;0.40;;;;;;;;;;5092105;28;20090;-80
2023/12/25 05:12:49;;;;;;;2.10;0.98;;;;;;;;;;5075231;28;20170;-81
2023/12/25 05:15:16;;;;;;;0.70;0.50;;;;;;;;;;5092049;28;20105;-81
2023/12/25 05:17:43;;;;;;;1.80;0.40;;;;;;;;;;5091794;28;20048;-80
2023/12/25 05:20:10;;;;;;;1.38;0.75;;;;;;;;;;5072436;28;20096;-81
2023/12/25 05:22:37;;;;;;;0.43;0.30;;;;;;;;;;5054799;28;20056;-80
2023/12/25 05:25:03;;;;;;;1.20;0.30;;;;;;;;;;5053490;28;20501;-81
2023/12/25 05:27:30;;;;;;;0.70;0.45;;;;;;;;;;5074894;28;20082;-80
2023/12/25 05:29:57;;;;;;;1.05;0.50;;;;;;;;;;5058527;28;20048;-81
2023/12/25 05:32:24;;;;;;;0.75;0.50;;;;;;;;;;5091981;28;20048;-80
2023/12/25 05:34:50;;;;;;;0.60;0.50;;;;;;;;;;5091738;28;20139;-81
2023/12/25 05:37:17;;;;;;;0.50;0.30;;;;;;;;;;5091680;28;20053;-81
2023/12/25 05:39:44;;;;;;;0.80;0.40;;;;;;;;;;5092031;28;20082;-80
2023/12/25 05:42:10;;;;;;;0.80;0.40;;;;;;;;;;5091669;28;20049;-81
2023/12/25 05:44:37;;;;;;;0.82;0.43;;;;;;;;;;5091180;28;20064;-80
2023/12/25 05:47:04;;;;;;;1.85;0.43;;;;;;;;;;5071111;28;20479;-80
2023/12/25 05:49:34;;;;;;;1.83;0.47;;;;;;;;;;5073636;28;20114;-80
2023/12/25 05:52:01;;;;;;;0.60;0.45;;;;;;;;;;5091748;28;20053;-80
2023/12/25 05:54:28;;;;;;;0.47;0.38;;;;;;;;;;5074662;28;20044;-81
2023/12/25 05:56:54;;;;;;;1.35;0.45;;;;;;;;;;5091542;28;20087;-80
2023/12/25 05:59:21;;;;;;;0.60;0.30;;;;;;;;;;5074141;28;20460;-81
2023/12/25 06:01:48;;;;;;;0.50;0.40;;;;;;;;;;5090509;28;20084;-80
2023/12/25 06:04:14;;;;;;;1.17;0.60;;;;;;;;;;5074341;28;20095;-80
2023/12/25 06:06:41;;;;;;;0.65;0.43;;;;;;;;;;5090823;28;20044;-81
2023/12/25 06:09:10;;;;;;;0.60;0.25;;;;;;;;;;5075821;28;20052;-80
2023/12/25 06:11:37;;;;;;;1.50;0.50;;;;;;;;;;5074968;28;20063;-80
2023/12/25 06:14:03;;;;;;;0.63;0.43;;;;;;;;;;5091564;28;20052;-81
2023/12/25 06:16:30;;;;;;;0.55;0.40;;;;;;;;;;5057509;28;20052;-80
2023/12/25 06:18:57;;;;;;;0.47;0.40;;;;;;;;;;5091107;28;20094;-80
2023/12/25 06:21:23;;;;;;;0.80;0.40;;;;;;;;;;5091200;28;20056;-80
2023/12/25 06:23:50;;;;;;;0.95;0.40;;;;;;;;;;5074226;28;20064;-81
2023/12/25 06:26:17;;;;;;;1.20;0.43;;;;;;;;;;5074609;28;20112;-81
2023/12/25 06:28:43;;;;;;;0.75;0.50;;;;;;;;;;5090973;28;20159;-81
2023/12/25 06:31:10;;;;;;;1.00;0.40;;;;;;;;;;5090890;28;20060;-80
2023/12/25 06:33:37;;;;;;;0.98;0.63;;;;;;;;;;5090972;28;20104;-80
2023/12/25 06:36:04;;;;;;;2.78;0.80;;;;;;;;;;5073821;28;20063;-81
2023/12/25 06:38:30;;;;;;;1.10;0.70;;;;;;;;;;5057823;28;20437;-81
2023/12/25 06:40:57;;;;;;;0.80;0.50;;;;;;;;;;5097227;28;20047;-82
2023/12/25 06:43:24;;;;;;;0.20;0.20;;;;;;;;;;5089028;28;20060;-80
2023/12/25 06:45:50;;;;;;;0.70;0.40;;;;;;;;;;5074240;28;20057;-80
2023/12/25 06:48:17;;;;;;;0.47;0.32;;;;;;;;;;5073129;28;20052;-81
2023/12/25 06:50:44;;;;;;;0.80;0.43;;;;;;;;;;5074135;28;20055;-80
2023/12/25 06:53:11;;;;;;;0.68;0.40;;;;;;;;;;5056266;28;20124;-80
2023/12/25 06:55:37;;;;;;;0.85;0.40;;;;;;;;;;5073409;28;20113;-80
2023/12/25 06:58:04;;;;;;;0.55;0.50;;;;;;;;;;5089908;28;20083;-80
2023/12/25 07:00:30;;;;;;;0.52;0.50;;;;;;;;;;5056693;28;20138;-80
2023/12/25 07:02:57;;;;;;;0.50;0.40;;;;;;;;;;5056514;28;20127;-80
2023/12/25 07:05:24;;;;;;;0.85;0.52;;;;;;;;;;5073022;28;20052;-81
2023/12/25 07:07:51;;;;;;;1.10;0.63;;;;;;;;;;5089838;28;20044;-80
2023/12/25 07:10:18;;;;;;;3.03;0.70;;;;;;;;;;5074354;28;20411;-80
2023/12/25 07:12:44;;;;;;;1.73;0.57;;;;;;;;;;5089537;28;20080;-81
2023/12/25 07:15:11;;;;;;;0.50;0.45;;;;;;;;;;5090423;28;20071;-79
2023/12/25 07:17:38;;;;;;;0.73;0.60;;;;;;;;;;5091291;28;20102;-80
2023/12/25 07:20:05;;;;;;;0.45;0.45;;;;;;;;;;5056740;28;20083;-80
2023/12/25 07:22:32;;;;;;;3.20;1.30;;;;;;;;;;5057630;28;20058;-81
2023/12/25 07:25:04;;;;;;;1.83;0.50;;;;;;;;;;5090628;28;20095;-81
2023/12/25 07:27:31;;;;;;;;;;;;;;;;;;5074721;28;20097;-80
2023/12/25 07:29:58;;;;;;;0.60;0.40;;;;;;;;;;5073447;28;20343;-80
2023/12/25 07:32:24;;;;;;;1.13;0.50;;;;;;;;;;5073058;28;20048;-81
2023/12/25 07:34:52;;;;;;;1.55;0.90;;;;;;;;;;5073379;28;20044;-80
2023/12/25 07:37:18;;;;;;;0.60;0.50;;;;;;;;;;5089819;28;20060;-81
2023/12/25 07:39:45;;;;;;;1.00;0.63;;;;;;;;;;5089716;28;20410;-80
2023/12/25 07:42:12;;;;;;;1.63;0.50;;;;;;;;;;5089724;28;20117;-81
2023/12/25 07:44:39;;;;;;;0.55;0.47;;;;;;;;;;5072117;28;20556;-82
2023/12/25 07:47:06;;;;;;;1.58;0.50;;;;;;;;;;5055751;28;20424;-80
2023/12/25 07:49:32;;;;;;;0.82;0.55;;;;;;;;;;5072389;28;20052;-82
2023/12/25 07:51:59;;;;;;;0.88;0.73;;;;;;;;;;5088933;28;20045;-81
2023/12/25 07:54:26;;;;;;;0.85;0.50;;;;;;;;;;5088928;28;20051;-80
2023/12/25 07:56:52;;;;;;;1.02;0.65;;;;;;;;;;5055129;28;20052;-81
2023/12/25 07:59:20;;;;;;;0.70;0.60;;;;;;;;;;5055912;28;20052;-80
2023/12/25 08:01:47;;;;;;;0.73;0.73;;;;;;;;;;5072026;28;20056;-81
2023/12/25 08:04:13;;;;;;;1.40;0.70;;;;;;;;;;5072031;28;20086;-80
2023/12/25 08:06:40;;;;;;;0.77;0.75;;;;;;;;;;5088538;28;20102;-80
2023/12/25 08:09:07;;;;;;;0.70;0.60;;;;;;;;;;5090002;28;20044;-81
2023/12/25 08:11:35;;;;;;;0.63;0.50;;;;;;;;;;5090508;28;20418;-81
2023/12/25 08:14:01;;;;;;;1.35;0.90;;;;;;;;;;5055886;28;20102;-81
2023/12/25 08:16:28;;;;;;;1.55;0.57;;;;;;;;;;5072067;28;20464;-82
2023/12/25 08:18:55;;;;;;;1.58;0.82;;;;;;;;;;5055644;28;20048;-81
2023/12/25 08:21:23;;;;;;;0.52;0.52;;;;;;;;;;5056006;28;20517;-81
2023/12/25 08:23:50;;;;;;;0.40;0.40;;;;;;;;;;5088035;28;20060;-81
2023/12/25 08:26:16;;;;;;;0.98;0.70;;;;;;;;;;5089903;28;20044;-81
2023/12/25 08:28:43;;;;;;;4.07;1.05;;;;;;;;;;5088802;28;20098;-82
2023/12/25 08:31:10;;;;;;;0.75;0.50;;;;;;;;;;5076406;28;20079;-81
2023/12/25 08:33:36;;;;;;;0.75;0.60;;;;;;;;;;5072354;28;20170;-81
2023/12/25 08:36:03;;;;;;;1.58;0.80;;;;;;;;;;5088743;28;20533;-83
2023/12/25 08:38:30;;;;;;;0.88;0.50;;;;;;;;;;5071619;28;20060;-81
2023/12/25 08:40:59;;;;;;;0.43;0.43;;;;;;;;;;5072031;28;20048;-82
2023/12/25 08:43:25;;;;;;;1.08;0.63;;;;;;;;;;5092222;28;20056;-85
2023/12/25 08:45:52;;;;;;;1.23;0.47;;;;;;;;;;5073261;28;20481;-81
2023/12/25 08:48:19;;;;;;;0.77;0.57;;;;;;;;;;5070637;28;20053;-81
2023/12/25 08:50:45;;;;;;;1.85;0.45;;;;;;;;;;5087659;28;20053;-83
2023/12/25 08:53:12;;;;;;;1.90;0.73;;;;;;;;;;5070765;28;20078;-81
2023/12/25 08:55:39;;;;;;;0.65;0.52;;;;;;;;;;5087900;28;20101;-81
2023/12/25 08:58:05;;;;;;;1.05;0.80;;;;;;;;;;5071015;28;20056;-81
2023/12/25 09:00:32;;;;;;;4.53;2.20;;;;;;;;;;5087448;28;20052;-81
2023/12/25 09:02:59;;;;;;;1.20;0.80;;;;;;;;;;5079739;28;20525;-81
2023/12/25 09:05:26;;;;;;;3.35;2.13;;;;;;;;;;5071919;28;20044;-82
2023/12/25 09:07:52;;;;;;;1.30;0.80;;;;;;;;;;5054857;28;20127;-81
2023/12/25 09:10:19;;;;;;;0.93;0.70;;;;;;;;;;5055094;28;20051;-81
2023/12/25 09:12:48;;;;;;;2.25;0.60;;;;;;;;;;5072636;28;20490;-81
2023/12/25 09:15:15;;;;;;;1.27;0.80;;;;;;;;;;5071528;28;20070;-81
2023/12/25 09:17:42;;;;;;;1.40;0.50;;;;;;;;;;5071493;28;20057;-81
2023/12/25 09:20:09;;;;;;;2.20;0.68;;;;;;;;;;5089205;28;20083;-81
2023/12/25 09:22:36;;;;;;;0.60;0.47;;;;;;;;;;5088420;28;20056;-81
2023/12/25 09:25:03;;;;;;;0.50;0.50;;;;;;;;;;5055080;28;20059;-82
2023/12/25 09:27:30;;;;;;;0.98;0.60;;;;;;;;;;5071328;28;20057;-85
2023/12/25 09:29:56;;;;;;;2.22;0.60;;;;;;;;;;5113247;28;20044;-83
2023/12/25 09:32:23;;;;;;;0.88;0.60;;;;;;;;;;5092747;28;20108;-81
2023/12/25 09:34:50;;;;;;;0.98;0.70;;;;;;;;;;5077380;28;20074;-83
2023/12/25 09:37:25;;;;;;;1.15;0.75;;;;;;;;;;5087889;28;20369;-82
2023/12/25 09:39:53;;;;;;;1.42;0.55;;;;;;;;;;5078682;28;20086;-82
2023/12/25 09:42:20;;;;;;;1.20;0.73;;;;;;;;;;5111715;28;20033;-84
2023/12/25 09:44:48;;;;;;;0.90;0.70;;;;;;;;;;5092207;28;20056;-84
2023/12/25 09:47:14;;;;;;;0.65;0.47;;;;;;;;;;5075040;28;20044;-83
2023/12/25 09:49:41;;;;;;;2.00;1.20;;;;;;;;;;5094409;28;20057;-82
2023/12/25 09:52:08;;;;;;;1.92;0.50;;;;;;;;;;5094336;28;20055;-81
2023/12/25 09:54:34;;;;;;;0.90;0.55;;;;;;;;;;5085065;28;20299;-80
2023/12/25 09:57:01;;;;;;;0.82;0.60;;;;;;;;;;5103552;28;20063;-81
2023/12/25 09:59:27;;;;;;;0.60;0.50;;;;;;;;;;5086134;28;20099;-81
2023/12/25 10:01:55;;;;;;;0.73;0.40;;;;;;;;;;5086548;28;20063;-81
2023/12/25 10:04:22;;;;;;;0.90;0.40;;;;;;;;;;5068034;28;20086;-81
2023/12/25 10:06:48;;;;;;;0.47;0.30;;;;;;;;;;5081615;28;20479;-82
2023/12/25 10:09:16;;;;;;;0.75;0.50;;;;;;;;;;5062125;28;20048;-82
2023/12/25 10:11:42;;;;;;;0.60;0.50;;;;;;;;;;5075315;28;20106;-81
2023/12/25 10:14:09;;;;;;;0.80;0.70;;;;;;;;;;5075051;28;20122;-82
2023/12/25 10:16:36;;;;;;;1.35;0.80;;;;;;;;;;5091317;28;20495;-82
2023/12/25 10:19:03;;;;;;;0.80;0.40;;;;;;;;;;5075990;28;20057;-82
2023/12/25 10:21:43;;;;;;;1.15;0.95;;;;;;;;;;5074235;28;20131;-82
2023/12/25 10:24:19;;;;;;;0.60;0.60;;;;;;;;;;5074262;28;20445;-82
2023/12/25 10:26:46;;;;;;;0.60;0.60;;;;;;;;;;5074491;28;20087;-82
2023/12/25 10:29:13;;;;;;;0.93;0.47;;;;;;;;;;5074868;28;20048;-82
2023/12/25 10:31:43;;;;;;;0.90;0.38;;;;;;;;;;5092049;28;20518;-82
2023/12/25 10:34:10;;;;;;;0.40;0.35;;;;;;;;;;5058406;28;20414;-82
2023/12/25 10:36:37;;;;;;;0.40;0.28;;;;;;;;;;5091144;28;20051;-81
2023/12/25 10:39:04;;;;;;;0.60;0.40;;;;;;;;;;5074306;28;20403;-82
2023/12/25 10:41:33;;;;;;;1.17;0.50;;;;;;;;;;5075017;28;20056;-82
2023/12/25 10:44:02;;;;;;;0.90;0.60;;;;;;;;;;5096180;28;20063;-84
2023/12/25 10:46:36;;;;;;;0.85;0.38;;;;;;;;;;5077506;28;20560;-81
2023/12/25 10:49:04;;;;;;;1.95;0.70;;;;;;;;;;5068435;28;20181;-82
2023/12/25 10:51:31;;;;;;;13.57;5.25;;;;;;;;;;5056757;28;20585;-82
2023/12/25 10:54:02;;;;;;;9.50;3.53;;;;;;;;;;5074128;28;20137;-82
2023/12/25 10:56:33;;;;;;;32.80;11.95;;;;;;;;;;5073958;28;20096;-82
2023/12/25 10:59:13;;;;;;;18.33;7.50;;;;;;;;;;5070418;28;20049;-82
2023/12/25 11:01:39;;;;;;;3.97;2.03;;;;;;;;;;5057459;28;20049;-83
2023/12/25 11:04:06;;;;;;;1.05;0.80;;;;;;;;;;5090530;28;20044;-82
2023/12/25 11:06:33;;;;;;;0.80;0.80;;;;;;;;;;5073313;28;20499;-81
2023/12/25 11:08:59;;;;;;;1.05;1.00;;;;;;;;;;5090326;28;20554;-83
2023/12/25 11:11:26;;;;;;;1.58;0.82;;;;;;;;;;5056785;28;20071;-82
2023/12/25 11:13:53;;;;;;;0.60;0.50;;;;;;;;;;5073321;28;20106;-81
2023/12/25 11:16:19;;;;;;;0.90;0.52;;;;;;;;;;5090451;28;20052;-82
2023/12/25 11:18:46;;;;;;;1.60;1.10;;;;;;;;;;5073661;28;20121;-81
2023/12/25 11:21:18;;;;;;;0.47;0.47;;;;;;;;;;5090530;28;20052;-81
2023/12/25 11:23:45;;;;;;;1.63;0.43;;;;;;;;;;5065583;28;20055;-81
2023/12/25 11:26:12;;;;;;;0.32;0.32;;;;;;;;;;5056915;28;20060;-82
2023/12/25 11:28:42;;;;;;;0.30;0.20;;;;;;;;;;5073174;28;20392;-81
2023/12/25 11:31:11;;;;;;;1.67;0.45;;;;;;;;;;5056249;28;20098;-81
2023/12/25 11:33:47;;;;;;;0.40;0.30;;;;;;;;;;5056987;28;20135;-81
2023/12/25 11:36:14;;;;;;;0.35;0.20;;;;;;;;;;5056550;28;20052;-81
2023/12/25 11:38:42;;;;;;;0.50;0.30;;;;;;;;;;5072723;28;20056;-81
2023/12/25 11:41:13;;;;;;;0.50;0.32;;;;;;;;;;5056402;28;20049;-81
2023/12/25 11:43:40;;;;;;;0.65;0.30;;;;;;;;;;5073065;28;20060;-81
2023/12/25 11:46:09;;;;;;;0.45;0.25;;;;;;;;;;5089449;28;20048;-82
2023/12/25 11:48:35;;;;;;;0.28;0.28;;;;;;;;;;5056099;28;20052;-81
2023/12/25 11:51:19;;;;;;;0.50;0.50;;;;;;;;;;5089530;28;20049;-83
2023/12/25 11:53:46;;;;;;;0.30;0.30;;;;;;;;;;5056563;28;20094;-82
2023/12/25 11:56:13;;;;;;;0.20;0.20;;;;;;;;;;5059342;28;20052;-81
2023/12/25 11:58:40;;;;;;;0.10;0.10;;;;;;;;;;5076473;28;20049;-81
2023/12/25 12:01:06;;;;;;;0.32;0.30;;;;;;;;;;5073130;28;20052;-83
2023/12/25 12:03:33;;;;;;;1.13;0.70;;;;;;;;;;5072872;28;20102;-82
2023/12/25 12:06:00;;;;;;;0.25;0.25;;;;;;;;;;5089385;28;20052;-81
2023/12/25 12:08:27;;;;;;;0.25;0.20;;;;;;;;;;5072028;28;20045;-83
2023/12/25 12:10:54;;;;;;;1.92;0.80;;;;;;;;;;5072691;28;20091;-82
2023/12/25 12:13:21;;;;;;;0.80;0.55;;;;;;;;;;5089370;28;20098;-82
2023/12/25 12:15:47;;;;;;;0.20;0.20;;;;;;;;;;5089708;28;20056;-82
2023/12/25 12:18:14;;;;;;;0.30;0.20;;;;;;;;;;5089347;28;20049;-81
2023/12/25 12:20:41;;;;;;;0.45;0.28;;;;;;;;;;5064829;28;20108;-81
2023/12/25 12:23:13;;;;;;;0.40;0.30;;;;;;;;;;5074227;28;20053;-81
2023/12/25 12:25:40;;;;;;;2.40;0.73;;;;;;;;;;5067215;28;20045;-80
2023/12/25 12:28:07;;;;;;;0.88;0.70;;;;;;;;;;5056255;28;20781;-81
2023/12/25 12:30:37;;;;;;;1.40;0.50;;;;;;;;;;5077281;28;20453;-81
2023/12/25 12:33:04;;;;;;;0.40;0.40;;;;;;;;;;5058722;28;20041;-81
2023/12/25 12:35:33;;;;;;;0.50;0.30;;;;;;;;;;5059316;28;20045;-81
2023/12/25 12:38:00;;;;;;;0.30;0.30;;;;;;;;;;5059391;28;20078;-81
2023/12/25 12:40:27;;;;;;;0.77;0.40;;;;;;;;;;5083300;28;20029;-86
2023/12/25 12:42:54;;;;;;;0.60;0.40;;;;;;;;;;5073729;28;20059;-81
2023/12/25 12:45:21;;;;;;;0.90;0.60;;;;;;;;;;5059666;28;20049;-81
2023/12/25 12:47:52;;;;;;;1.35;0.30;;;;;;;;;;5092179;28;20041;-81
2023/12/25 12:50:20;;;;;;;1.27;0.28;;;;;;;;;;5092553;28;20080;-81
2023/12/25 12:52:47;;;;;;;0.45;0.30;;;;;;;;;;5075895;28;20040;-81
2023/12/25 12:55:14;;;;;;;4.22;2.78;;;;;;;;;;5083448;28;20083;-81
2023/12/25 12:57:40;;;;;;;1.00;0.75;;;;;;;;;;5090623;28;20048;-81
2023/12/25 13:00:07;;;;;;;0.40;0.30;;;;;;;;;;5076299;28;20117;-81
2023/12/25 13:02:35;;;;;;;1.08;0.73;;;;;;;;;;5080953;28;20568;-81
2023/12/25 13:05:02;;;;;;;0.95;0.28;;;;;;;;;;5056868;28;20080;-83
2023/12/25 13:07:28;;;;;;;1.23;0.73;;;;;;;;;;5090707;28;20098;-81
2023/12/25 13:09:55;;;;;;;0.40;0.40;;;;;;;;;;5076186;28;20048;-81
2023/12/25 13:12:22;;;;;;;0.65;0.45;;;;;;;;;;5094407;28;20056;-81
2023/12/25 13:14:51;;;;;;;1.63;0.40;;;;;;;;;;5094261;28;20490;-81
2023/12/25 13:17:18;;;;;;;0.80;0.80;;;;;;;;;;5094614;28;20056;-81
2023/12/25 13:19:44;;;;;;;0.88;0.80;;;;;;;;;;5078222;28;20056;-81
2023/12/25 13:22:11;;;;;;;0.90;0.47;;;;;;;;;;5094776;28;20052;-81
2023/12/25 13:24:38;;;;;;;0.55;0.30;;;;;;;;;;5077654;28;20061;-81
2023/12/25 13:27:05;;;;;;;1.05;0.70;;;;;;;;;;5061438;28;20049;-80
2023/12/25 13:29:33;;;;;;;0.52;0.30;;;;;;;;;;5093976;28;20192;-83
2023/12/25 13:31:59;;;;;;;0.60;0.40;;;;;;;;;;5095948;28;20051;-81
2023/12/25 13:34:26;;;;;;;2.17;0.43;;;;;;;;;;5079692;28;20559;-83
2023/12/25 13:36:52;;;;;;;0.40;0.30;;;;;;;;;;5078144;28;20052;-82
2023/12/25 13:39:19;;;;;;;1.02;0.40;;;;;;;;;;5078278;28;20074;-81
2023/12/25 13:41:46;;;;;;;0.30;0.30;;;;;;;;;;5095254;28;20481;-81
2023/12/25 13:44:13;;;;;;;0.50;0.50;;;;;;;;;;5094407;28;20064;-81
2023/12/25 13:46:40;;;;;;;0.50;0.50;;;;;;;;;;5062215;28;20440;-82
2023/12/25 13:49:07;;;;;;;0.90;0.70;;;;;;;;;;5067813;28;20075;-81
2023/12/25 13:51:34;;;;;;;0.57;0.40;;;;;;;;;;5078193;28;20563;-81
2023/12/25 13:54:00;;;;;;;0.50;0.50;;;;;;;;;;5093350;28;20044;-81
2023/12/25 13:56:27;;;;;;;1.10;0.80;;;;;;;;;;5060118;28;20053;-82
2023/12/25 13:58:54;;;;;;;1.25;0.60;;;;;;;;;;5076267;28;20143;-81
2023/12/25 14:01:21;;;;;;;2.38;0.60;;;;;;;;;;5076115;28;20098;-81
2023/12/25 14:03:47;;;;;;;0.47;0.47;;;;;;;;;;5093079;28;20467;-81
2023/12/25 14:06:19;;;;;;;0.88;0.68;;;;;;;;;;5077141;28;20132;-81
2023/12/25 14:08:46;;;;;;;0.63;0.40;;;;;;;;;;5077821;28;20568;-81
2023/12/25 14:11:13;;;;;;;1.42;0.40;;;;;;;;;;5094017;28;20056;-81
2023/12/25 14:13:39;;;;;;;1.35;0.80;;;;;;;;;;5093765;28;20422;-81
2023/12/25 14:16:06;;;;;;;1.00;0.50;;;;;;;;;;5077422;28;20048;-80
2023/12/25 14:18:33;;;;;;;1.23;0.85;;;;;;;;;;5096383;28;20048;-81
2023/12/25 14:21:00;;;;;;;1.67;1.17;;;;;;;;;;5080465;28;20198;-81
2023/12/25 14:23:26;;;;;;;3.67;2.00;;;;;;;;;;5073732;28;20057;-81
2023/12/25 14:25:53;;;;;;;1.80;1.30;;;;;;;;;;5075629;28;20052;-81
2023/12/25 14:28:20;;;;;;;1.55;0.82;;;;;;;;;;5058665;28;20383;-81
2023/12/25 14:30:46;;;;;;;0.77;0.70;;;;;;;;;;5071437;28;20396;-81
2023/12/25 14:33:16;;;;;;;1.08;0.73;;;;;;;;;;5070246;28;20091;-82
2023/12/25 14:35:43;;;;;;;1.27;1.00;;;;;;;;;;5091246;28;20063;-83
2023/12/25 14:38:10;;;;;;;1.17;0.93;;;;;;;;;;5074361;28;20060;-82
2023/12/25 14:40:37;;;;;;;2.72;1.52;;;;;;;;;;5074553;28;20048;-82
2023/12/25 14:43:03;;;;;;;3.10;1.75;;;;;;;;;;5091420;28;20056;-82